createdAt,value
2023-05-16T00:00:42.187Z,87.68
2023-05-16T00:03:24.889Z,88.13
2023-05-16T00:05:56.711Z,87.87
2023-05-16T00:08:25.389Z,88.42
2023-05-16T00:10:54.148Z,88.34
2023-05-16T00:16:17.204Z,88.45
2023-05-16T00:18:45.824Z,88.49
2023-05-16T00:21:14.556Z,88.99
2023-05-16T00:23:50.756Z,88.64
2023-05-16T00:26:20.005Z,89.28
2023-05-16T00:28:48.365Z,89.31
2023-05-16T00:31:16.776Z,89.68
2023-05-16T00:33:45.325Z,89.63
2023-05-16T00:36:14.290Z,89.88
2023-05-16T00:38:45.914Z,90.02
2023-05-16T00:41:14.810Z,90.08
2023-05-16T00:43:43.126Z,90.20
2023-05-16T00:46:31.987Z,90.27
2023-05-16T00:49:00.528Z,90.85
2023-05-16T00:51:29.211Z,90.79
2023-05-16T00:53:58.769Z,90.84
2023-05-16T00:56:27.376Z,90.87
2023-05-16T00:58:55.768Z,91.18
2023-05-16T01:01:27.683Z,91.61
2023-05-16T01:03:57.070Z,91.94
2023-05-16T01:06:55.786Z,91.64
2023-05-16T01:09:33.273Z,92.15
2023-05-16T01:13:01.833Z,92.43
2023-05-16T01:15:37.445Z,92.67
2023-05-16T01:18:16.141Z,92.62
2023-05-16T01:20:52.253Z,92.60
2023-05-16T01:24:19.639Z,92.64
2023-05-16T01:27:52.374Z,93.21
2023-05-16T01:30:23.333Z,93.46
2023-05-16T01:32:51.949Z,93.41
2023-05-16T01:36:21.605Z,94.26
2023-05-16T01:39:04.161Z,94.26
2023-05-16T01:42:08.493Z,94.41
2023-05-16T01:45:02.259Z,94.53
2023-05-16T01:48:13.035Z,94.30
2023-05-16T01:50:46.906Z,94.76
2023-05-16T01:53:22.603Z,94.84
2023-05-16T01:56:17.747Z,95.12
2023-05-16T01:58:47.568Z,95.48
2023-05-16T02:01:16.072Z,95.91
2023-05-16T02:03:44.303Z,96.30
2023-05-16T02:06:13.139Z,96.39
2023-05-16T02:08:41.460Z,96.09
2023-05-16T02:11:09.728Z,96.68
2023-05-16T02:13:38.045Z,96.37
2023-05-16T02:16:06.475Z,96.49
2023-05-16T02:18:35.176Z,96.44
2023-05-16T02:21:12.556Z,97.03
2023-05-16T02:23:41.707Z,97.14
2023-05-16T02:26:10.071Z,97.31
2023-05-16T02:28:38.235Z,97.23
2023-05-16T02:31:09.450Z,97.53
2023-05-16T02:34:16.728Z,97.43
2023-05-16T02:36:44.875Z,98.17
2023-05-16T02:39:13.257Z,98.41
2023-05-16T02:41:41.998Z,98.29
2023-05-16T02:44:11.171Z,98.35
2023-05-16T02:46:39.902Z,98.77
2023-05-16T02:49:08.350Z,98.58
2023-05-16T02:51:37.229Z,98.63
2023-05-16T02:54:08.487Z,99.11
2023-05-16T02:56:37.481Z,99.21
2023-05-16T02:59:05.965Z,99.54
2023-05-16T03:01:34.680Z,99.38
2023-05-16T03:04:03.363Z,99.18
2023-05-16T03:06:32.208Z,99.72
2023-05-16T03:09:00.632Z,99.84
2023-05-16T03:11:29.339Z,99.71
2023-05-16T03:14:01.583Z,99.97
2023-05-16T03:16:30.980Z,99.98
2023-05-16T03:18:59.846Z,99.93
2023-05-16T03:21:28.098Z,99.91
2023-05-16T03:23:56.540Z,99.99
2023-05-16T03:26:26.052Z,99.95
2023-05-16T03:29:23.962Z,100.00
2023-05-16T03:31:52.946Z,100.00
2023-05-16T03:34:30.715Z,100.00
2023-05-16T03:36:59.291Z,100.00
2023-05-16T03:39:27.782Z,100.00
2023-05-16T03:41:57.491Z,100.00
2023-05-16T03:44:26.060Z,100.00
2023-05-16T03:46:56.298Z,100.00
2023-05-16T03:49:30.430Z,100.00
2023-05-16T03:51:58.942Z,100.00
2023-05-16T03:54:50.618Z,100.00
2023-05-16T03:57:18.945Z,100.00
2023-05-16T04:00:09.019Z,100.00
2023-05-16T04:02:45.488Z,100.00
2023-05-16T04:05:17.176Z,100.00
2023-05-16T04:07:45.516Z,100.00
2023-05-16T04:10:14.654Z,100.00
2023-05-16T04:12:43.086Z,100.00
2023-05-16T04:15:12.336Z,100.00
2023-05-16T04:17:41.240Z,100.00
2023-05-16T04:20:10.431Z,100.00
2023-05-16T04:22:38.507Z,100.00
2023-05-16T04:25:07.175Z,100.00
2023-05-16T04:27:35.757Z,100.00
2023-05-16T04:30:04.706Z,100.00
2023-05-16T04:32:35.458Z,100.00
2023-05-16T04:35:04.767Z,99.99
2023-05-16T04:37:56.082Z,100.00
2023-05-16T04:40:28.060Z,100.00
2023-05-16T04:42:56.456Z,100.00
2023-05-16T04:45:24.983Z,100.00
2023-05-16T04:47:53.455Z,100.00
2023-05-16T04:50:22.081Z,100.00
2023-05-16T04:53:11.297Z,100.00
2023-05-16T04:55:39.798Z,100.00
2023-05-16T04:58:08.483Z,100.00
2023-05-16T05:00:38.306Z,99.94
2023-05-16T05:03:09.107Z,100.00
2023-05-16T05:05:38.266Z,100.00
2023-05-16T05:08:06.834Z,99.95
2023-05-16T05:10:38.330Z,100.00
2023-05-16T05:13:36.460Z,99.99
2023-05-16T05:16:06.734Z,99.98
2023-05-16T05:18:35.265Z,99.92
2023-05-16T05:21:06.720Z,99.97
2023-05-16T05:23:35.208Z,99.89
2023-05-16T05:26:03.619Z,99.71
2023-05-16T05:28:35.100Z,99.84
2023-05-16T05:31:12.602Z,99.78
2023-05-16T05:33:42.184Z,99.85
2023-05-16T05:36:10.570Z,99.88
2023-05-16T05:38:38.938Z,100.00
2023-05-16T05:41:12.014Z,100.00
2023-05-16T05:44:41.232Z,100.00
2023-05-16T05:47:09.628Z,99.88
2023-05-16T05:49:38.095Z,99.15
2023-05-16T05:52:06.734Z,98.57
2023-05-16T05:54:35.516Z,97.24
2023-05-16T05:57:04.050Z,96.04
2023-05-16T05:59:56.128Z,95.88
2023-05-16T06:02:32.107Z,95.55
2023-05-16T06:05:25.938Z,95.13
2023-05-16T06:08:14.916Z,94.97
2023-05-16T06:10:46.688Z,95.23
2023-05-16T06:13:15.148Z,95.45
2023-05-16T06:15:43.971Z,95.97
2023-05-16T06:18:12.569Z,96.21
2023-05-16T06:20:41.092Z,96.04
2023-05-16T06:23:12.884Z,96.85
2023-05-16T06:25:51.192Z,96.90
2023-05-16T06:28:20.019Z,97.07
2023-05-16T06:30:48.367Z,97.23
2023-05-16T06:33:16.551Z,97.24
2023-05-16T06:35:45.373Z,97.69
2023-05-16T06:38:13.799Z,97.55
2023-05-16T06:40:42.273Z,97.81
2023-05-16T06:43:12.100Z,97.72
2023-05-16T06:45:41.111Z,97.86
2023-05-16T06:48:30.355Z,97.99
2023-05-16T06:50:58.835Z,98.06
2023-05-16T06:53:27.493Z,97.92
2023-05-16T06:55:56.192Z,98.48
2023-05-16T06:58:30.888Z,98.26
2023-05-16T07:00:59.441Z,98.23
2023-05-16T07:03:29.231Z,98.72
2023-05-16T07:05:58.214Z,99.00
2023-05-16T07:08:29.733Z,99.11
2023-05-16T07:10:58.188Z,98.75
2023-05-16T07:13:26.755Z,99.65
2023-05-16T07:15:55.186Z,99.66
2023-05-16T07:18:23.426Z,99.40
2023-05-16T07:20:52.609Z,99.54
2023-05-16T07:23:21.019Z,99.66
2023-05-16T07:25:53.605Z,99.82
2023-05-16T07:28:25.219Z,99.97
2023-05-16T07:31:01.310Z,99.92
2023-05-16T07:33:29.939Z,100.00
2023-05-16T07:36:12.191Z,99.94
2023-05-16T07:38:44.740Z,100.00
2023-05-16T07:41:13.197Z,100.00
2023-05-16T07:43:41.480Z,100.00
2023-05-16T07:46:11.487Z,99.97
2023-05-16T07:48:40.013Z,100.00
2023-05-16T07:51:16.062Z,100.00
2023-05-16T07:53:52.221Z,100.00
2023-05-16T07:56:20.643Z,99.97
2023-05-16T07:58:51.964Z,100.00
2023-05-16T08:01:21.077Z,99.90
2023-05-16T08:03:49.309Z,99.53
2023-05-16T08:06:17.620Z,99.55
2023-05-16T08:08:45.735Z,99.33
2023-05-16T08:11:14.018Z,99.51
2023-05-16T08:13:42.289Z,99.14
2023-05-16T08:16:17.088Z,98.46
2023-05-16T08:18:45.921Z,98.00
2023-05-16T08:21:17.540Z,97.41
2023-05-16T08:23:45.840Z,97.30
2023-05-16T08:26:22.283Z,96.51
2023-05-16T08:29:11.548Z,95.94
2023-05-16T08:31:40.226Z,95.39
2023-05-16T08:34:10.541Z,94.87
2023-05-16T08:36:46.626Z,94.25
2023-05-16T08:39:15.039Z,94.54
2023-05-16T08:41:44.200Z,94.05
2023-05-16T08:44:17.421Z,93.56
2023-05-16T08:46:50.906Z,93.98
2023-05-16T08:49:20.943Z,94.56
2023-05-16T08:51:51.874Z,93.52
2023-05-16T08:54:22.109Z,93.11
2023-05-16T08:56:51.396Z,93.11
2023-05-16T08:59:20.843Z,93.09
2023-05-16T09:01:49.533Z,92.92
2023-05-16T09:04:18.632Z,93.00
2023-05-16T09:06:48.559Z,92.91
2023-05-16T09:09:17.041Z,93.14
2023-05-16T09:12:25.289Z,93.41
2023-05-16T09:14:53.905Z,93.10
2023-05-16T09:17:46.802Z,93.04
2023-05-16T09:20:18.864Z,93.22
2023-05-16T09:22:52.920Z,92.73
2023-05-16T09:25:30.445Z,92.54
2023-05-16T09:28:16.742Z,92.42
2023-05-16T09:30:47.521Z,92.00
2023-05-16T09:33:33.914Z,91.69
2023-05-16T09:36:06.257Z,92.06
2023-05-16T09:38:35.154Z,91.62
2023-05-16T09:41:04.753Z,92.02
2023-05-16T09:43:34.943Z,91.95
2023-05-16T09:46:05.103Z,92.07
2023-05-16T09:48:36.559Z,91.82
2023-05-16T09:51:08.783Z,91.87
2023-05-16T09:53:38.726Z,92.06
2023-05-16T09:56:10.773Z,91.79
2023-05-16T09:58:48.056Z,92.24
2023-05-16T10:01:23.682Z,91.79
2023-05-16T10:03:52.464Z,91.90
2023-05-16T10:06:33.193Z,91.55
2023-05-16T10:09:04.817Z,91.59
2023-05-16T10:11:33.851Z,91.89
2023-05-16T10:14:07.938Z,91.42
2023-05-16T10:16:36.748Z,91.01
2023-05-16T10:19:05.927Z,90.81
2023-05-16T10:21:38.114Z,91.03
2023-05-16T10:24:12.061Z,90.83
2023-05-16T10:26:40.235Z,91.30
2023-05-16T10:29:08.602Z,90.84
2023-05-16T10:31:38.272Z,91.13
2023-05-16T10:34:07.048Z,91.45
2023-05-16T10:36:36.160Z,90.93
2023-05-16T10:39:05.403Z,90.82
2023-05-16T10:41:35.283Z,91.11
2023-05-16T10:44:05.147Z,90.93
2023-05-16T10:46:33.492Z,90.77
2023-05-16T10:49:23.051Z,90.95
2023-05-16T10:52:07.827Z,91.16
2023-05-16T10:54:41.593Z,90.99
2023-05-16T10:57:23.027Z,91.30
2023-05-16T10:59:52.363Z,91.53
2023-05-16T11:02:35.140Z,92.11
2023-05-16T11:05:04.058Z,91.19
2023-05-16T11:07:39.472Z,91.09
2023-05-16T11:10:15.909Z,91.41
2023-05-16T11:12:52.054Z,91.85
2023-05-16T11:15:32.659Z,91.11
2023-05-16T11:18:16.121Z,90.63
2023-05-16T11:20:44.590Z,90.41
2023-05-16T11:23:16.887Z,90.32
2023-05-16T11:25:57.221Z,90.34
2023-05-16T11:28:27.085Z,90.26
2023-05-16T11:31:03.416Z,90.37
2023-05-16T11:33:35.806Z,89.88
2023-05-16T11:38:44.063Z,89.93
2023-05-16T11:41:15.672Z,90.28
2023-05-16T11:43:46.401Z,90.18
2023-05-16T11:46:16.530Z,90.95
2023-05-16T11:48:47.602Z,90.67
2023-05-16T11:51:20.672Z,90.90
2023-05-16T11:53:52.490Z,91.23
2023-05-16T11:56:23.745Z,91.41
2023-05-16T11:58:53.032Z,91.28
2023-05-16T12:01:21.509Z,91.18
2023-05-16T12:04:17.291Z,90.89
2023-05-16T12:06:57.729Z,90.99
2023-05-16T12:09:26.692Z,90.62
2023-05-16T12:11:55.194Z,91.11
2023-05-16T12:14:24.232Z,90.85
2023-05-16T12:16:53.777Z,91.06
2023-05-16T12:19:31.396Z,90.60
2023-05-16T12:22:00.190Z,90.85
2023-05-16T12:24:32.310Z,90.22
2023-05-16T12:27:03.803Z,90.20
2023-05-16T12:29:35.613Z,90.43
2023-05-16T12:32:04.946Z,90.51
2023-05-16T12:34:33.256Z,90.58
2023-05-16T12:37:02.413Z,90.72
2023-05-16T12:39:38.589Z,90.58
2023-05-16T12:42:07.910Z,90.79
2023-05-16T12:44:36.390Z,90.82
2023-05-16T12:47:04.809Z,90.98
2023-05-16T12:49:33.958Z,90.77
2023-05-16T12:52:05.962Z,90.87
2023-05-16T12:54:54.633Z,90.89
2023-05-16T12:57:25.507Z,90.86
2023-05-16T12:59:53.707Z,90.83
2023-05-16T13:02:22.814Z,90.76
2023-05-16T13:04:51.376Z,90.65
2023-05-16T13:07:19.858Z,90.60
2023-05-16T13:09:48.332Z,90.60
2023-05-16T13:12:16.938Z,90.51
2023-05-16T13:14:45.530Z,90.49
2023-05-16T13:17:24.677Z,90.70
2023-05-16T13:19:58.474Z,90.89
2023-05-16T13:22:27.093Z,90.62
2023-05-16T13:24:58.615Z,90.56
2023-05-16T13:27:31.005Z,90.73
2023-05-16T13:31:02.565Z,90.43
2023-05-16T13:33:31.589Z,90.46
2023-05-16T13:36:00.430Z,90.27
2023-05-16T13:38:29.128Z,90.24
2023-05-16T13:40:57.625Z,89.82
2023-05-16T13:44:00.677Z,89.95
2023-05-16T13:46:49.527Z,89.92
2023-05-16T13:49:27.258Z,89.64
2023-05-16T13:52:16.724Z,89.44
2023-05-16T13:54:45.280Z,89.41
2023-05-16T13:57:13.788Z,89.62
2023-05-16T14:02:44.699Z,89.58
2023-05-16T14:05:16.894Z,89.40
2023-05-16T14:07:48.487Z,89.23
2023-05-16T14:10:16.887Z,89.34
2023-05-16T14:12:49.266Z,89.33
2023-05-16T14:15:21.534Z,89.62
2023-05-16T14:17:53.343Z,89.17
2023-05-16T14:20:26.976Z,89.24
2023-05-16T14:23:47.549Z,89.21
2023-05-16T14:26:16.792Z,89.00
2023-05-16T14:28:45.495Z,88.86
2023-05-16T14:31:13.719Z,88.81
2023-05-16T14:33:52.979Z,88.41
2023-05-16T14:36:21.752Z,88.78
2023-05-16T14:38:53.436Z,88.76
2023-05-16T14:41:22.819Z,88.78
2023-05-16T14:43:51.449Z,88.81
2023-05-16T14:46:58.748Z,88.66
2023-05-16T14:49:30.855Z,88.72
2023-05-16T14:51:59.981Z,88.99
2023-05-16T14:54:28.266Z,88.96
2023-05-16T14:56:56.715Z,88.54
2023-05-16T14:59:25.309Z,88.51
2023-05-16T15:01:53.733Z,88.83
2023-05-16T15:04:22.241Z,88.91
2023-05-16T15:07:00.393Z,88.62
2023-05-16T15:09:28.853Z,88.59
2023-05-16T15:11:57.061Z,88.42
2023-05-16T15:14:27.364Z,88.32
2023-05-16T15:16:55.664Z,87.73
2023-05-16T15:19:35.802Z,87.58
2023-05-16T15:22:07.933Z,87.23
2023-05-16T15:24:36.851Z,86.74
2023-05-16T15:27:05.787Z,87.02
2023-05-16T15:29:54.824Z,87.02
2023-05-16T15:33:03.941Z,87.10
2023-05-16T15:35:32.645Z,87.02
2023-05-16T15:38:01.516Z,86.60
2023-05-16T15:40:30.206Z,86.45
2023-05-16T15:43:07.699Z,86.55
2023-05-16T15:45:39.418Z,86.43
2023-05-16T15:48:08.781Z,85.96
2023-05-16T15:50:55.194Z,85.79
2023-05-16T15:53:23.533Z,85.74
2023-05-16T15:55:51.971Z,86.02
2023-05-16T15:58:22.799Z,85.53
2023-05-16T16:00:51.659Z,85.51
2023-05-16T16:03:20.421Z,85.63
2023-05-16T16:05:50.320Z,85.90
2023-05-16T16:08:28.657Z,85.41
2023-05-16T16:10:56.958Z,85.68
2023-05-16T16:13:25.285Z,85.70
2023-05-16T16:15:54.177Z,85.67
2023-05-16T16:18:46.251Z,84.52
2023-05-16T16:21:14.604Z,84.88
2023-05-16T16:23:43.232Z,84.95
2023-05-16T16:26:21.564Z,84.85
2023-05-16T16:29:07.688Z,85.02
2023-05-16T16:31:36.253Z,84.94
2023-05-16T16:34:07.959Z,85.11
2023-05-16T16:36:36.786Z,85.06
2023-05-16T16:39:32.742Z,85.34
2023-05-16T16:42:02.484Z,85.40
2023-05-16T16:44:52.665Z,85.43
2023-05-16T16:47:23.033Z,85.56
2023-05-16T16:49:52.181Z,85.70
2023-05-16T16:52:20.782Z,85.52
2023-05-16T16:54:49.406Z,85.34
2023-05-16T16:57:21.521Z,85.57
2023-05-16T16:59:51.756Z,85.39
2023-05-16T17:02:20.371Z,85.60
2023-05-16T17:04:49.295Z,85.10
2023-05-16T17:07:25.237Z,85.24
2023-05-16T17:09:54.753Z,85.68
2023-05-16T17:12:32.910Z,85.59
2023-05-16T17:15:05.417Z,85.16
2023-05-16T17:17:36.567Z,85.22
2023-05-16T17:20:08.088Z,85.41
2023-05-16T17:22:37.118Z,85.05
2023-05-16T17:25:10.015Z,84.86
2023-05-16T17:27:38.760Z,85.14
2023-05-16T17:30:10.706Z,85.36
2023-05-16T17:32:40.096Z,85.11
2023-05-16T17:35:29.289Z,85.13
2023-05-16T17:37:59.303Z,85.28
2023-05-16T17:40:28.458Z,85.00
2023-05-16T17:42:57.541Z,85.11
2023-05-16T17:45:26.344Z,85.23
2023-05-16T17:47:57.634Z,85.25
2023-05-16T17:50:26.434Z,85.24
2023-05-16T17:52:54.987Z,85.08
2023-05-16T17:55:24.914Z,85.48
2023-05-16T17:58:18.134Z,85.48
2023-05-16T18:01:16.529Z,85.74
2023-05-16T18:03:45.244Z,85.65
2023-05-16T18:06:13.739Z,85.55
2023-05-16T18:08:42.338Z,85.36
2023-05-16T18:11:11.434Z,85.46
2023-05-16T18:13:43.407Z,85.82
2023-05-16T18:16:11.729Z,85.44
2023-05-16T18:18:49.384Z,85.65
2023-05-16T18:21:18.307Z,85.77
2023-05-16T18:23:47.337Z,86.10
2023-05-16T18:26:30.793Z,86.00
2023-05-16T18:28:59.528Z,86.27
2023-05-16T18:31:28.200Z,86.21
2023-05-16T18:33:58.019Z,86.69
2023-05-16T18:36:26.588Z,86.77
2023-05-16T18:38:54.983Z,87.11
2023-05-16T18:41:23.467Z,86.57
2023-05-16T18:43:51.904Z,86.91
2023-05-16T18:46:20.813Z,87.21
2023-05-16T18:48:49.539Z,87.29
2023-05-16T18:51:18.143Z,87.07
2023-05-16T18:53:46.551Z,87.68
2023-05-16T18:56:14.932Z,87.38
2023-05-16T18:58:43.339Z,87.25
2023-05-16T19:01:12.346Z,88.08
2023-05-16T19:03:44.018Z,88.34
2023-05-16T19:06:12.833Z,88.10
2023-05-16T19:08:48.168Z,88.13
2023-05-16T19:11:18.187Z,88.54
2023-05-16T19:13:47.343Z,88.76
2023-05-16T19:16:15.765Z,89.04
2023-05-16T19:18:44.457Z,88.87
2023-05-16T19:21:13.777Z,88.84
2023-05-16T19:23:42.273Z,88.79
2023-05-16T19:26:12.905Z,88.91
2023-05-16T19:28:42.805Z,89.32
2023-05-16T19:31:11.541Z,88.99
2023-05-16T19:33:40.315Z,88.89
2023-05-16T19:36:08.990Z,88.40
2023-05-16T19:38:40.566Z,88.83
2023-05-16T19:41:09.120Z,88.65
2023-05-16T19:43:38.388Z,88.87
2023-05-16T19:46:06.716Z,88.71
2023-05-16T19:48:35.802Z,88.31
2023-05-16T19:51:04.401Z,88.47
2023-05-16T19:53:33.218Z,88.69
2023-05-16T19:56:02.818Z,88.77
2023-05-16T19:58:31.242Z,88.73
2023-05-16T20:00:59.636Z,88.78
2023-05-16T20:03:28.201Z,89.05
2023-05-16T20:05:56.896Z,88.76
2023-05-16T20:08:25.720Z,88.86
2023-05-16T20:10:55.496Z,88.13
2023-05-16T20:13:32.874Z,88.87
2023-05-16T20:16:01.966Z,88.31
2023-05-16T20:18:30.925Z,88.64
2023-05-16T20:21:08.638Z,88.63
2023-05-16T20:24:06.439Z,88.69
2023-05-16T20:26:35.167Z,88.86
2023-05-16T20:29:03.952Z,88.83
2023-05-16T20:31:32.356Z,88.39
2023-05-16T20:34:00.892Z,88.59
2023-05-16T20:36:29.836Z,88.62
2023-05-16T20:38:58.041Z,88.44
2023-05-16T20:41:26.453Z,88.61
2023-05-16T20:43:55.655Z,88.84
2023-05-16T20:46:23.950Z,88.65
2023-05-16T20:48:55.038Z,88.26
2023-05-16T20:51:32.658Z,88.34
2023-05-16T20:54:01.315Z,88.12
2023-05-16T20:56:33.263Z,87.98
2023-05-16T20:59:01.602Z,87.96
2023-05-16T21:01:33.859Z,87.87
2023-05-16T21:04:02.382Z,88.30
2023-05-16T21:06:31.621Z,87.79
2023-05-16T21:09:00.290Z,87.87
2023-05-16T21:11:29.358Z,87.51
2023-05-16T21:13:57.802Z,87.30
2023-05-16T21:16:27.203Z,87.70
2023-05-16T21:18:56.421Z,87.68
2023-05-16T21:21:48.372Z,87.37
2023-05-16T21:24:16.611Z,86.82
2023-05-16T21:26:46.237Z,87.04
2023-05-16T21:29:14.852Z,86.76
2023-05-16T21:32:04.215Z,87.28
2023-05-16T21:34:32.716Z,86.89
2023-05-16T21:37:01.755Z,86.69
2023-05-16T21:39:30.641Z,86.59
2023-05-16T21:42:02.148Z,86.63
2023-05-16T21:44:50.797Z,86.94
2023-05-16T21:47:39.988Z,86.93
2023-05-16T21:50:11.579Z,86.71
2023-05-16T21:52:41.677Z,86.97
2023-05-16T21:55:23.517Z,86.66
2023-05-16T21:57:54.992Z,86.76
2023-05-16T22:00:44.182Z,86.89
2023-05-16T22:03:21.940Z,87.14
2023-05-16T22:05:50.652Z,87.56
2023-05-16T22:08:18.840Z,87.36
2023-05-16T22:10:50.532Z,86.96
2023-05-16T22:13:20.456Z,86.33
2023-05-16T22:16:03.985Z,86.00
2023-05-16T22:18:34.036Z,85.36
2023-05-16T22:21:02.665Z,85.43
2023-05-16T22:23:31.293Z,85.33
2023-05-16T22:26:00.108Z,85.25
2023-05-16T22:28:28.911Z,85.32
2023-05-16T22:30:57.253Z,85.23
2023-05-16T22:33:26.364Z,85.30
2023-05-16T22:35:54.989Z,84.96
2023-05-16T22:38:23.389Z,85.23
2023-05-16T22:40:52.304Z,85.22
2023-05-16T22:43:31.749Z,84.59
2023-05-16T22:46:02.231Z,84.16
2023-05-16T22:48:31.697Z,83.95
2023-05-16T22:51:02.341Z,83.08
2023-05-16T22:53:30.572Z,82.74
2023-05-16T22:55:58.866Z,82.41
2023-05-16T22:58:27.325Z,81.69
2023-05-16T23:00:56.082Z,81.59
2023-05-16T23:03:25.846Z,81.08
2023-05-16T23:05:55.322Z,80.30
2023-05-16T23:08:23.704Z,80.29
2023-05-16T23:10:51.991Z,79.57
2023-05-16T23:13:20.211Z,79.34
2023-05-16T23:15:48.394Z,79.29
2023-05-16T23:18:17.058Z,78.86
2023-05-16T23:20:45.369Z,79.10
2023-05-16T23:23:14.069Z,78.58
2023-05-16T23:25:42.421Z,78.35
2023-05-16T23:28:11.079Z,78.07
2023-05-16T23:30:39.533Z,77.97
2023-05-16T23:33:08.103Z,78.03
2023-05-16T23:35:36.573Z,77.88
2023-05-16T23:38:04.944Z,77.75
2023-05-16T23:40:53.840Z,77.50
2023-05-16T23:43:22.345Z,77.47
2023-05-16T23:46:12.461Z,76.78
2023-05-16T23:48:41.012Z,77.10
2023-05-16T23:51:09.312Z,76.64
2023-05-16T23:53:48.296Z,76.42
2023-05-16T23:56:17.299Z,76.33
2023-05-16T23:58:54.750Z,76.04
